Time;durP1;ratioP1;P1;durP2;ratioP2;P2;SDS_P1;SDS_P2;PMS_P1;PMS_P2;Temp;Humidity;BMP_temperature;BMP_pressure;BME280_temperature;BME280_humidity;BME280_pressure;Samples;Min_cycle;Max_cycle;Signal;HPM_P1;HPM_P2
2022/04/10 00:00:40;;;;;;;2.70;2.30;;;;;;;6.66;83.72;96267.44;110060;1248;69425;-65
2022/04/10 00:03:11;;;;;;;3.80;2.50;;;;;;;6.60;83.23;96266.34;109983;1248;69251;-68
2022/04/10 00:05:43;;;;;;;2.40;2.00;;;;;;;6.57;82.84;96270.73;109915;1248;59727;-67
2022/04/10 00:08:13;;;;;;;3.10;2.80;;;;;;;6.52;82.72;96266.08;110057;1249;59685;-65
2022/04/10 00:10:43;;;;;;;2.20;2.00;;;;;;;6.48;82.63;96264.31;110053;1248;71491;-68
2022/04/10 00:13:13;;;;;;;2.80;2.30;;;;;;;6.47;82.32;96270.63;110094;1249;69203;-65
2022/04/10 00:15:44;;;;;;;3.10;2.30;;;;;;;6.43;82.77;96276.61;109920;1248;69461;-63
2022/04/10 00:18:14;;;;;;;;;;;;;;;6.39;83.44;96274.81;109914;1250;59703;-63
2022/04/10 00:20:44;;;;;;;3.00;2.50;;;;;;;6.34;83.68;96278.33;109969;1249;59821;-63
2022/04/10 00:23:14;;;;;;;4.10;2.70;;;;;;;6.28;84.26;96277.72;110003;1247;71522;-65
2022/04/10 00:25:44;;;;;;;3.50;2.20;;;;;;;6.21;84.93;96284.15;109974;1248;68488;-64
2022/04/10 00:28:15;;;;;;;3.30;2.10;;;;;;;6.17;84.85;96283.04;109849;1249;69554;-64
2022/04/10 00:30:45;;;;;;;;;;;;;;;6.15;84.22;96282.80;109984;1248;59639;-61
2022/04/10 00:33:15;;;;;;;3.00;2.40;;;;;;;6.09;83.97;96281.66;109987;1250;59787;-60
2022/04/10 00:35:45;;;;;;;;;;;;;;;6.04;84.48;96283.80;110056;1248;71592;-61
2022/04/10 00:38:15;;;;;;;2.60;1.80;;;;;;;6.03;85.28;96284.23;110092;1247;68801;-61
2022/04/10 00:40:45;;;;;;;2.50;1.80;;;;;;;6.05;85.00;96282.86;109982;1250;69436;-61
2022/04/10 00:43:16;;;;;;;2.90;2.50;;;;;;;6.06;84.72;96281.25;109884;1250;59736;-61
2022/04/10 00:45:46;;;;;;;3.40;1.90;;;;;;;6.05;84.06;96282.15;109892;1247;59693;-61
2022/04/10 00:48:16;;;;;;;;;;;;;;;6.04;84.15;96280.48;109916;1251;70177;-61
2022/04/10 00:51:40;;;;;;;3.90;3.10;;;;;;;6.03;84.39;96278.11;110077;1247;68377;-64
2022/04/10 00:53:39;;;;;;;3.70;2.40;;;;;;;6.03;83.84;96274.52;109986;1248;69417;-60
2022/04/10 00:56:09;;;;;;;2.10;1.90;;;;;;;6.02;83.17;96271.11;109875;1247;59759;-65
2022/04/10 00:58:41;;;;;;;2.90;2.50;;;;;;;6.01;83.25;96271.39;110047;1248;59676;-61
2022/04/10 01:01:12;;;;;;;3.40;2.50;;;;;;;6.00;83.98;96270.60;109795;1250;71507;-61
2022/04/10 01:03:42;;;;;;;;;;;;;;;6.00;83.40;96265.23;109878;1250;68575;-61
2022/04/10 01:06:13;;;;;;;;;;;;;;;5.90;85.32;96268.88;109842;1250;68541;-61
2022/04/10 01:08:44;;;;;;;3.10;2.50;;;;;;;5.82;85.69;96268.76;109791;1248;59804;-61
2022/04/10 01:11:15;;;;;;;3.10;2.70;;;;;;;5.78;85.29;96267.84;110054;1250;59698;-61
2022/04/10 01:13:45;;;;;;;2.90;2.30;;;;;;;5.74;84.82;96259.14;110003;1247;70744;-62
2022/04/10 01:16:16;;;;;;;3.40;2.40;;;;;;;5.71;84.17;96247.60;109960;1249;68910;-62
2022/04/10 01:18:47;;;;;;;2.60;2.20;;;;;;;5.65;84.06;96249.23;109715;1250;68703;-62
2022/04/10 01:21:28;;;;;;;2.80;2.10;;;;;;;5.60;83.78;96246.25;109852;1251;59723;-62
2022/04/10 01:24:01;;;;;;;2.70;2.40;;;;;;;5.54;84.13;96246.90;110039;1248;59636;-62
2022/04/10 01:26:32;;;;;;;2.90;2.00;;;;;;;5.51;84.05;96242.48;109890;1250;71105;-62
2022/04/10 01:29:06;;;;;;;1.70;1.60;;;;;;;5.47;83.60;96236.72;109849;1250;68531;-60
2022/04/10 01:31:38;;;;;;;3.00;2.20;;;;;;;5.42;83.50;96243.58;109825;1247;69343;-62
2022/04/10 01:34:13;;;;;;;2.90;2.00;;;;;;;5.40;83.66;96250.69;109705;1251;60190;-62
2022/04/10 01:36:44;;;;;;;2.40;2.20;;;;;;;5.34;84.76;96249.70;109960;1250;59687;-62
2022/04/10 01:39:15;;;;;;;2.70;2.10;;;;;;;5.31;84.94;96252.28;109764;1251;70903;-61
2022/04/10 01:41:47;;;;;;;2.80;2.20;;;;;;;5.30;85.75;96258.80;109892;1251;69396;-64
2022/04/10 01:44:17;;;;;;;2.20;1.70;;;;;;;5.29;85.10;96259.73;109862;1250;68795;-63
2022/04/10 01:46:48;;;;;;;2.50;2.20;;;;;;;5.28;84.87;96265.16;109957;1249;59742;-62
2022/04/10 01:49:18;;;;;;;3.10;2.40;;;;;;;5.25;85.01;96274.01;109859;1250;59703;-62
2022/04/10 01:51:47;;;;;;;1.60;1.50;;;;;;;5.23;84.77;96276.06;109756;1250;71560;-63
2022/04/10 01:54:18;;;;;;;2.20;1.80;;;;;;;5.22;85.74;96271.30;109855;1250;69544;-65
2022/04/10 01:56:48;;;;;;;2.10;1.80;;;;;;;5.26;85.73;96263.04;109945;1250;69391;-62
2022/04/10 01:59:18;;;;;;;;;;;;;;;5.26;84.99;96257.99;109872;1250;59664;-63
2022/04/10 02:01:49;;;;;;;3.30;2.00;;;;;;;5.25;85.33;96257.05;109988;1250;59710;-64
2022/04/10 02:04:20;;;;;;;1.80;1.20;;;;;;;5.20;85.21;96261.73;109787;1250;71581;-65
2022/04/10 02:06:50;;;;;;;1.40;1.30;;;;;;;5.21;85.16;96258.38;109781;1250;68514;-63
2022/04/10 02:09:21;;;;;;;2.00;1.60;;;;;;;5.21;85.63;96252.68;109969;1251;67704;-63
2022/04/10 02:11:52;;;;;;;3.90;2.10;;;;;;;5.19;85.08;96254.16;109748;1251;59736;-62
2022/04/10 02:14:24;;;;;;;2.80;2.10;;;;;;;5.17;85.43;96261.95;109953;1251;59678;-63
2022/04/10 02:16:54;;;;;;;2.20;1.90;;;;;;;5.15;85.11;96261.42;109964;1251;71554;-65
2022/04/10 02:19:25;;;;;;;2.70;1.90;;;;;;;4.99;86.75;96259.54;109963;1249;68483;-64
2022/04/10 02:21:57;;;;;;;2.70;1.60;;;;;;;5.03;87.25;96257.52;109973;1250;68877;-68
2022/04/10 02:24:27;;;;;;;2.40;1.70;;;;;;;5.04;86.92;96257.52;109683;1251;59693;-64
2022/04/10 02:26:57;;;;;;;1.40;1.20;;;;;;;5.04;85.27;96260.04;109830;1250;59758;-64
2022/04/10 02:29:29;;;;;;;1.50;1.40;;;;;;;5.01;85.13;96259.24;109729;1251;69762;-60
2022/04/10 02:32:00;;;;;;;2.10;1.50;;;;;;;4.91;85.96;96263.56;109780;1251;69347;-61
2022/04/10 02:34:29;;;;;;;2.70;1.70;;;;;;;4.84;86.32;96263.34;110020;1247;68546;-63
2022/04/10 02:37:00;;;;;;;2.60;1.80;;;;;;;4.86;86.19;96259.43;109811;1248;60045;-63
2022/04/10 02:39:30;;;;;;;;;;;;;;;4.87;86.75;96254.02;109889;1248;60156;-63
2022/04/10 02:42:00;;;;;;;2.50;1.80;;;;;;;4.86;87.10;96249.56;110013;1248;70653;-67
2022/04/10 02:44:31;;;;;;;2.50;1.90;;;;;;;4.83;86.73;96249.04;110135;1247;68769;-62
2022/04/10 02:47:01;;;;;;;1.80;1.60;;;;;;;4.82;87.22;96249.98;110084;1247;69274;-62
2022/04/10 02:49:31;;;;;;;2.40;1.90;;;;;;;4.82;86.16;96243.27;109816;1250;59742;-61
2022/04/10 02:52:02;;;;;;;3.00;1.80;;;;;;;4.79;85.99;96245.19;110055;1247;59749;-63
2022/04/10 02:54:34;;;;;;;2.10;1.60;;;;;;;4.77;86.13;96244.98;110017;1249;72335;-61
2022/04/10 02:57:05;;;;;;;1.90;1.60;;;;;;;4.74;85.93;96244.36;110085;1247;69430;-61
2022/04/10 02:59:35;;;;;;;1.50;1.20;;;;;;;4.71;85.78;96243.67;110062;1247;69533;-61
2022/04/10 03:02:05;;;;;;;2.40;1.70;;;;;;;4.69;85.39;96250.23;109981;1250;59750;-62
2022/04/10 03:04:36;;;;;;;2.40;1.60;;;;;;;4.67;85.24;96254.86;110082;1247;59715;-62
2022/04/10 03:07:07;;;;;;;2.80;2.00;;;;;;;4.57;86.42;96254.59;109956;1247;70791;-61
2022/04/10 03:09:37;;;;;;;;;;;;;;;4.53;86.37;96254.20;110077;1248;68677;-61
2022/04/10 03:12:08;;;;;;;3.00;1.80;;;;;;;4.51;86.98;96263.52;110043;1248;68668;-61
2022/04/10 03:14:39;;;;;;;1.70;1.50;;;;;;;4.52;87.23;96263.77;110054;1247;59729;-62
2022/04/10 03:17:09;;;;;;;1.80;1.60;;;;;;;4.54;85.84;96266.59;109988;1247;59684;-61
2022/04/10 03:19:40;;;;;;;2.40;2.00;;;;;;;4.53;85.29;96262.33;109996;1250;72183;-61
2022/04/10 03:22:11;;;;;;;2.60;2.00;;;;;;;4.50;86.22;96259.27;110013;1248;69587;-61
2022/04/10 03:24:42;;;;;;;2.40;2.20;;;;;;;4.47;85.98;96258.23;109801;1249;69321;-61
2022/04/10 03:27:13;;;;;;;2.60;1.90;;;;;;;4.47;86.09;96262.05;109795;1251;59757;-63
2022/04/10 03:29:43;;;;;;;2.60;2.30;;;;;;;4.45;86.24;96259.89;109966;1249;59656;-62
2022/04/10 03:32:14;;;;;;;2.30;1.80;;;;;;;4.41;87.43;96260.50;109802;1248;71510;-60
2022/04/10 03:34:44;;;;;;;1.80;1.60;;;;;;;4.41;87.60;96260.55;109847;1250;68574;-61
2022/04/10 03:37:15;;;;;;;2.80;1.90;;;;;;;4.43;87.35;96256.28;109844;1250;68447;-61
2022/04/10 03:39:44;;;;;;;1.90;1.70;;;;;;;4.42;87.45;96255.84;109757;1250;59769;-62
2022/04/10 03:42:14;;;;;;;2.70;2.20;;;;;;;4.41;87.49;96253.87;109965;1247;59691;-63
2022/04/10 03:44:44;;;;;;;4.30;2.70;;;;;;;4.37;87.28;96255.64;109825;1251;70775;-62
2022/04/10 03:47:14;;;;;;;1.70;1.50;;;;;;;4.37;86.98;96257.73;109776;1248;69514;-67
2022/04/10 03:49:44;;;;;;;3.70;2.30;;;;;;;4.37;87.03;96257.86;109847;1249;69277;-65
2022/04/10 03:52:15;;;;;;;4.40;2.30;;;;;;;4.38;86.59;96256.29;109870;1250;59712;-62
2022/04/10 03:54:46;;;;;;;3.20;2.00;;;;;;;4.36;86.79;96254.88;109823;1250;59821;-64
2022/04/10 03:57:16;;;;;;;2.80;2.20;;;;;;;4.37;86.97;96247.68;109845;1251;70778;-66
2022/04/10 03:59:46;;;;;;;11.20;8.30;;;;;;;4.39;87.18;96252.23;109809;1250;68089;-62
2022/04/10 04:02:17;;;;;;;30.10;26.10;;;;;;;4.40;86.40;96255.63;109851;1248;69433;-63
2022/04/10 04:04:47;;;;;;;47.90;36.10;;;;;;;4.41;86.10;96257.48;109881;1251;59685;-63
2022/04/10 04:07:17;;;;;;;30.70;24.90;;;;;;;4.41;85.28;96259.84;109993;1248;59766;-64
2022/04/10 04:09:47;;;;;;;30.30;26.50;;;;;;;4.41;85.31;96255.84;109955;1250;71642;-64
2022/04/10 04:12:18;;;;;;;12.40;11.10;;;;;;;4.42;85.15;96255.33;109854;1247;69224;-62
2022/04/10 04:14:47;;;;;;;8.10;7.30;;;;;;;4.40;85.13;96260.23;109894;1251;68620;-62
2022/04/10 04:17:17;;;;;;;5.30;4.80;;;;;;;4.39;86.11;96260.36;109983;1250;59737;-63
2022/04/10 04:19:49;;;;;;;3.80;3.40;;;;;;;4.39;86.05;96269.50;109881;1250;59687;-61
2022/04/10 04:22:20;;;;;;;12.10;11.00;;;;;;;4.37;86.48;96273.05;109881;1249;71580;-64
2022/04/10 04:24:49;;;;;;;5.80;5.30;;;;;;;4.34;86.79;96273.74;109878;1249;69312;-65
2022/04/10 04:27:19;;;;;;;2.80;2.30;;;;;;;4.33;86.69;96277.59;109844;1250;68581;-65
2022/04/10 04:29:48;;;;;;;2.90;2.30;;;;;;;4.26;86.59;96277.39;109970;1247;59682;-64
2022/04/10 04:32:19;;;;;;;4.90;3.80;;;;;;;4.25;86.97;96277.32;109820;1250;59733;-65
2022/04/10 04:34:48;;;;;;;;;;;;;;;4.25;86.17;96276.29;109925;1248;72308;-64
2022/04/10 04:37:18;;;;;;;3.60;3.20;;;;;;;4.22;86.30;96274.71;109990;1250;69526;-65
2022/04/10 04:39:47;;;;;;;4.60;4.10;;;;;;;4.21;86.47;96277.04;110017;1250;67582;-66
2022/04/10 04:42:18;;;;;;;4.60;3.80;;;;;;;4.22;86.32;96274.71;109914;1247;59759;-62
2022/04/10 04:44:47;;;;;;;3.60;3.20;;;;;;;4.22;86.12;96277.98;109827;1249;59767;-63
2022/04/10 04:47:17;;;;;;;4.60;4.10;;;;;;;4.22;85.56;96281.80;109889;1249;70994;-65
2022/04/10 04:49:47;;;;;;;4.30;3.70;;;;;;;4.21;85.93;96278.09;109820;1248;67635;-65
2022/04/10 04:52:18;;;;;;;3.90;2.90;;;;;;;4.21;86.16;96287.42;109938;1247;69603;-63
2022/04/10 04:54:48;;;;;;;3.20;2.30;;;;;;;4.18;86.21;96291.39;109879;1247;60110;-60
2022/04/10 04:57:18;;;;;;;3.20;2.40;;;;;;;4.10;86.81;96294.30;109975;1247;59645;-62
2022/04/10 04:59:48;;;;;;;3.80;2.80;;;;;;;4.11;86.95;96292.67;110018;1249;70820;-60
2022/04/10 05:02:18;;;;;;;3.00;2.50;;;;;;;4.11;87.28;96294.77;110040;1248;68752;-66
2022/04/10 05:04:47;;;;;;;3.90;3.40;;;;;;;4.12;87.13;96296.75;109889;1248;69420;-65
2022/04/10 05:07:17;;;;;;;3.80;3.40;;;;;;;4.12;86.61;96299.19;109978;1248;59775;-67
2022/04/10 05:09:46;;;;;;;4.60;4.10;;;;;;;4.12;86.35;96293.02;109758;1250;59720;-62
2022/04/10 05:12:16;;;;;;;5.50;4.70;;;;;;;4.12;85.92;96297.83;109970;1247;72141;-62
2022/04/10 05:14:46;;;;;;;4.60;3.50;;;;;;;4.11;85.77;96304.08;110009;1247;69523;-62
2022/04/10 05:17:16;;;;;;;;;;;;;;;4.08;85.71;96296.48;110042;1247;69449;-63
2022/04/10 05:19:47;;;;;;;4.60;3.80;;;;;;;4.08;85.32;96288.23;110002;1248;59766;-61
2022/04/10 05:22:17;;;;;;;4.00;2.80;;;;;;;4.02;85.13;96289.10;110009;1248;59707;-62
2022/04/10 05:24:51;;;;;;;4.80;2.90;;;;;;;3.97;85.23;96297.90;109700;1248;72309;-61
2022/04/10 05:27:21;;;;;;;8.20;6.40;;;;;;;3.90;85.29;96306.32;109982;1248;69454;-61
2022/04/10 05:29:50;;;;;;;11.00;10.00;;;;;;;3.85;85.43;96302.30;109970;1248;68632;-60
2022/04/10 05:32:20;;;;;;;25.40;21.20;;;;;;;3.79;86.01;96301.09;109862;1247;59744;-58
2022/04/10 05:34:50;;;;;;;15.10;13.20;;;;;;;3.77;85.92;96303.15;109947;1247;59729;-62
2022/04/10 05:37:20;;;;;;;10.00;8.80;;;;;;;3.75;85.82;96305.34;110034;1247;70733;-62
2022/04/10 05:39:51;;;;;;;11.20;10.00;;;;;;;3.72;86.40;96309.84;109746;1248;67673;-63
2022/04/10 05:42:21;;;;;;;5.80;4.50;;;;;;;3.71;86.31;96307.31;109854;1247;68676;-61
2022/04/10 05:44:51;;;;;;;6.00;3.90;;;;;;;3.70;86.31;96302.70;109897;1248;60218;-63
2022/04/10 05:47:20;;;;;;;4.60;3.90;;;;;;;3.67;86.30;96310.16;110084;1247;59637;-61
2022/04/10 05:49:50;;;;;;;4.60;4.20;;;;;;;3.68;86.24;96313.84;110087;1247;70613;-62
2022/04/10 05:52:19;;;;;;;4.40;3.50;;;;;;;3.65;86.36;96319.77;110097;1247;69432;-61
2022/04/10 05:54:50;;;;;;;5.90;4.80;;;;;;;3.63;86.56;96312.98;110004;1248;68867;-64
2022/04/10 05:57:19;;;;;;;5.40;4.80;;;;;;;3.64;86.35;96315.53;109981;1247;59699;-60
2022/04/10 05:59:49;;;;;;;3.50;2.90;;;;;;;3.56;86.61;96321.17;109790;1251;59688;-65
2022/04/10 06:02:18;;;;;;;4.60;3.30;;;;;;;3.54;86.63;96324.19;109929;1250;71585;-66
2022/04/10 06:04:48;;;;;;;7.40;5.40;;;;;;;3.47;86.80;96334.48;110004;1248;68704;-65
2022/04/10 06:07:22;;;;;;;5.90;4.60;;;;;;;3.49;86.23;96336.05;110008;1247;69435;-67
2022/04/10 06:09:52;;;;;;;5.70;4.70;;;;;;;3.49;86.25;96339.16;110060;1247;59766;-68
2022/04/10 06:12:21;;;;;;;5.60;4.50;;;;;;;3.44;86.81;96338.80;110026;1247;59674;-64
2022/04/10 06:14:51;;;;;;;4.70;3.60;;;;;;;3.25;86.02;96344.58;109867;1248;71482;-65
2022/04/10 06:17:20;;;;;;;5.90;3.70;;;;;;;3.21;86.03;96352.95;109894;1249;68817;-68
2022/04/10 06:19:50;;;;;;;5.00;3.80;;;;;;;3.13;85.71;96359.45;109968;1248;69441;-66
2022/04/10 06:22:20;;;;;;;5.60;3.70;;;;;;;3.05;85.64;96364.36;110043;1247;59749;-65
2022/04/10 06:24:53;;;;;;;3.60;3.20;;;;;;;3.02;85.47;96365.56;110031;1247;59697;-61
2022/04/10 06:27:24;;;;;;;3.30;2.70;;;;;;;2.88;85.01;96373.33;109042;1247;1074444;-67
2022/04/10 06:29:54;;;;;;;3.80;3.40;;;;;;;2.78;85.12;96378.04;109869;1248;69207;-65
2022/04/10 06:32:23;;;;;;;2.10;1.80;;;;;;;2.72;85.44;96393.36;109912;1247;69452;-67
2022/04/10 06:34:54;;;;;;;3.20;2.60;;;;;;;2.61;85.61;96393.81;109690;1251;59729;-63
2022/04/10 06:37:23;;;;;;;3.80;3.10;;;;;;;2.57;85.31;96398.18;109838;1250;59682;-65
2022/04/10 06:39:53;;;;;;;6.80;6.20;;;;;;;2.50;85.12;96408.86;109861;1247;70647;-64
2022/04/10 06:42:23;;;;;;;5.10;4.40;;;;;;;2.48;84.97;96412.77;109936;1248;69171;-63
2022/04/10 06:45:16;;;;;;;5.60;3.90;;;;;;;2.39;84.60;96414.98;109928;1247;69523;-64
2022/04/10 06:47:55;;;;;;;3.90;2.90;;;;;;;2.28;84.73;96422.30;110005;1248;60103;-62
2022/04/10 06:50:32;;;;;;;3.60;3.00;;;;;;;2.19;84.58;96429.67;109862;1247;59639;-62
2022/04/10 06:53:02;;;;;;;4.40;4.00;;;;;;;2.09;84.80;96433.19;110026;1247;71633;-66
2022/04/10 06:55:32;;;;;;;3.90;3.30;;;;;;;1.98;84.53;96428.75;110065;1247;69559;-62
2022/04/10 06:58:03;;;;;;;4.60;3.10;;;;;;;1.95;84.55;96437.20;109902;1249;70007;-67
2022/04/10 07:00:33;;;;;;;4.50;3.90;;;;;;;1.89;84.61;96442.46;109982;1248;60118;-64
2022/04/10 07:03:03;;;;;;;3.50;2.90;;;;;;;1.83;84.84;96442.64;109989;1248;59674;-62
2022/04/10 07:05:32;;;;;;;4.80;3.30;;;;;;;1.80;84.78;96447.60;109958;1250;72175;-60
2022/04/10 07:08:02;;;;;;;5.50;4.20;;;;;;;1.75;84.59;96454.70;109849;1251;69627;-60
2022/04/10 07:10:32;;;;;;;6.90;4.10;;;;;;;1.69;84.77;96456.94;109954;1248;69370;-61
2022/04/10 07:13:01;;;;;;;4.20;3.60;;;;;;;1.60;84.88;96457.09;109741;1248;59705;-62
2022/04/10 07:15:31;;;;;;;7.80;6.20;;;;;;;1.55;84.72;96458.20;109956;1249;59761;-61
2022/04/10 07:18:00;;;;;;;21.90;16.20;;;;;;;1.50;84.98;96461.55;110018;1247;71799;-63
2022/04/10 07:20:30;;;;;;;6.40;4.80;;;;;;;1.49;84.53;96462.30;110005;1247;69816;-63
2022/04/10 07:25:48;;;;;;;15.70;11.20;;;;;;;1.44;84.36;96466.30;109863;1247;59734;-63
2022/04/10 07:28:18;;;;;;;53.50;27.50;;;;;;;1.41;84.99;96470.45;109951;1248;59661;-62
2022/04/10 07:30:54;;;;;;;54.60;23.70;;;;;;;1.40;84.93;96474.06;109957;1247;72461;-62
2022/04/10 07:33:24;;;;;;;;;;;;;;;1.42;85.05;96478.95;110053;1248;68729;-62
2022/04/10 07:35:56;;;;;;;35.80;12.80;;;;;;;1.45;84.93;96479.83;109797;1250;69951;-61
2022/04/10 07:38:33;;;;;;;23.10;10.10;;;;;;;1.48;84.82;96483.77;109822;1248;59722;-61
2022/04/10 07:41:05;;;;;;;9.60;5.80;;;;;;;1.52;85.22;96483.42;109800;1248;59797;-61
2022/04/10 07:43:39;;;;;;;15.60;8.60;;;;;;;1.56;85.17;96487.33;110080;1247;72188;-61
2022/04/10 07:49:03;;;;;;;8.70;5.50;;;;;;;1.73;85.03;96490.92;110045;1247;68602;-61
2022/04/10 07:51:34;;;;;;;7.90;4.40;;;;;;;1.82;84.68;96492.67;109855;1248;59710;-66
2022/04/10 07:54:09;;;;;;;4.10;2.90;;;;;;;1.91;84.47;96490.65;110066;1247;59641;-67
2022/04/10 07:56:38;;;;;;;7.50;4.70;;;;;;;1.99;84.47;96496.58;110085;1247;71573;-64
2022/04/10 07:59:10;;;;;;;6.30;5.40;;;;;;;2.09;84.41;96499.85;109826;1247;69446;-64
2022/04/10 08:01:41;;;;;;;4.60;3.00;;;;;;;2.22;84.72;96500.52;109737;1250;67647;-62
2022/04/10 08:04:16;;;;;;;5.80;4.10;;;;;;;2.36;84.36;96506.11;110037;1248;59680;-67
2022/04/10 08:07:02;;;;;;;5.00;3.40;;;;;;;2.47;83.78;96508.61;109996;1247;59644;-62
2022/04/10 08:09:34;;;;;;;2.50;1.80;;;;;;;2.50;83.13;96510.86;110022;1247;71121;-62
2022/04/10 08:12:04;;;;;;;2.10;1.60;;;;;;;2.51;83.31;96514.56;110028;1247;69490;-61
2022/04/10 08:14:34;;;;;;;1.50;1.40;;;;;;;2.61;82.89;96518.55;110036;1247;69463;-63
2022/04/10 08:17:03;;;;;;;1.80;1.60;;;;;;;2.66;82.87;96527.55;109984;1247;59648;-65
2022/04/10 08:19:33;;;;;;;2.30;2.10;;;;;;;2.66;82.70;96528.77;110131;1247;59748;-64
2022/04/10 08:22:05;;;;;;;2.10;1.90;;;;;;;2.68;82.77;96533.48;110033;1247;71895;-65
2022/04/10 08:24:34;;;;;;;2.40;1.80;;;;;;;2.65;82.34;96537.73;110077;1247;69640;-62
2022/04/10 08:27:04;;;;;;;1.80;1.60;;;;;;;2.51;83.05;96534.70;109866;1247;69498;-62
2022/04/10 08:29:33;;;;;;;2.20;1.90;;;;;;;2.42;83.21;96532.82;110073;1247;60134;-62
2022/04/10 08:32:03;;;;;;;2.50;1.90;;;;;;;2.29;84.85;96530.39;110056;1247;59692;-65
2022/04/10 08:34:32;;;;;;;2.50;2.30;;;;;;;2.28;84.34;96536.95;109960;1248;72346;-67
2022/04/10 08:37:05;;;;;;;2.80;2.20;;;;;;;2.35;85.52;96542.79;110050;1247;68779;-62
2022/04/10 08:39:35;;;;;;;2.40;2.20;;;;;;;2.45;86.37;96540.52;110041;1247;69262;-61
2022/04/10 08:42:05;;;;;;;2.20;2.00;;;;;;;2.57;86.00;96540.25;110046;1247;59694;-62
2022/04/10 08:44:36;;;;;;;2.80;2.40;;;;;;;2.67;84.74;96546.06;110075;1247;59621;-64
2022/04/10 08:47:06;;;;;;;2.80;2.10;;;;;;;2.62;84.03;96543.08;110055;1247;71564;-62
2022/04/10 08:49:35;;;;;;;2.00;1.70;;;;;;;2.56;85.68;96540.61;110050;1247;67645;-62
2022/04/10 08:52:05;;;;;;;2.50;2.00;;;;;;;2.57;85.34;96538.86;109922;1248;68871;-63
2022/04/10 08:54:35;;;;;;;3.10;2.40;;;;;;;2.53;85.06;96545.46;110009;1247;59729;-63
2022/04/10 08:57:05;;;;;;;2.70;2.40;;;;;;;2.46;84.90;96548.75;110053;1247;59640;-64
2022/04/10 08:59:34;;;;;;;1.90;1.70;;;;;;;2.38;85.03;96545.58;110059;1247;71025;-63
2022/04/10 09:02:05;;;;;;;7.90;7.00;;;;;;;2.46;85.64;96551.67;110014;1247;68641;-63
2022/04/10 09:04:34;;;;;;;36.20;33.20;;;;;;;2.49;85.19;96555.45;109976;1247;68627;-64
2022/04/10 09:07:07;;;;;;;14.50;13.00;;;;;;;2.46;85.38;96560.77;110018;1247;59696;-65
2022/04/10 09:09:41;;;;;;;6.10;4.90;;;;;;;2.43;85.65;96560.93;110016;1247;59754;-65
2022/04/10 09:12:10;;;;;;;6.60;5.90;;;;;;;2.43;86.17;96563.38;110030;1247;71535;-63
2022/04/10 09:14:41;;;;;;;6.10;4.60;;;;;;;2.39;85.76;96566.48;110071;1247;70112;-63
2022/04/10 09:17:14;;;;;;;5.70;4.40;;;;;;;2.44;85.64;96568.64;109997;1247;69390;-64
2022/04/10 09:19:46;;;;;;;5.90;5.30;;;;;;;2.46;85.87;96569.55;109766;1249;59753;-64
2022/04/10 09:22:38;;;;;;;6.50;5.30;;;;;;;2.40;85.73;96573.83;110009;1247;59688;-65
2022/04/10 09:25:07;;;;;;;6.60;5.70;;;;;;;2.41;85.74;96573.80;109970;1247;70784;-63
2022/04/10 09:27:39;;;;;;;6.80;5.40;;;;;;;2.35;86.21;96580.79;109985;1247;68948;-64
2022/04/10 09:30:14;;;;;;;14.30;12.70;;;;;;;2.35;85.95;96580.13;109783;1247;69535;-66
2022/04/10 09:32:48;;;;;;;9.70;8.30;;;;;;;2.36;86.26;96583.20;110092;1247;59697;-62
2022/04/10 09:35:27;;;;;;;8.40;7.60;;;;;;;2.33;85.91;96580.42;110136;1247;59710;-64
2022/04/10 09:37:57;;;;;;;9.10;7.60;;;;;;;2.31;85.60;96577.75;110097;1247;71811;-64
2022/04/10 09:40:29;;;;;;;6.70;6.00;;;;;;;2.30;85.76;96581.59;109800;1250;68673;-61
2022/04/10 09:43:10;;;;;;;6.90;5.80;;;;;;;2.28;85.67;96583.42;109976;1247;68691;-65
2022/04/10 09:45:46;;;;;;;7.20;5.70;;;;;;;2.16;87.15;96580.45;110102;1247;59747;-63
2022/04/10 09:48:18;;;;;;;5.50;4.40;;;;;;;2.15;87.69;96584.45;109949;1248;59729;-68
2022/04/10 09:50:49;;;;;;;5.60;4.60;;;;;;;2.09;87.27;96588.52;110154;1247;70788;-62
2022/04/10 09:53:19;;;;;;;4.80;4.20;;;;;;;2.09;87.41;96595.42;110165;1247;68216;-64
2022/04/10 09:55:57;;;;;;;5.10;4.20;;;;;;;2.07;87.18;96599.32;109943;1247;68788;-61
2022/04/10 09:58:28;;;;;;;5.00;4.50;;;;;;;2.07;86.72;96598.98;110079;1247;59714;-63
2022/04/10 10:00:59;;;;;;;4.30;3.90;;;;;;;1.96;86.51;96597.61;110061;1247;59735;-68
2022/04/10 10:03:38;;;;;;;4.40;3.40;;;;;;;1.88;86.78;96593.42;110098;1247;70780;-61
2022/04/10 10:06:09;;;;;;;4.40;3.70;;;;;;;1.87;87.11;96595.73;110079;1246;68811;-60
2022/04/10 10:08:39;;;;;;;4.50;3.40;;;;;;;1.94;87.60;96594.30;110089;1247;68802;-62
2022/04/10 10:11:08;;;;;;;5.30;3.80;;;;;;;2.02;85.82;96593.90;110020;1248;59717;-60
2022/04/10 10:13:38;;;;;;;4.50;4.00;;;;;;;1.95;85.50;96601.79;110103;1247;59751;-61
2022/04/10 10:16:08;;;;;;;4.70;4.10;;;;;;;1.88;85.78;96603.02;110067;1247;71656;-63
2022/04/10 10:18:39;;;;;;;;;;;;;;;1.85;86.99;96609.70;110086;1247;68408;-62
2022/04/10 10:21:10;;;;;;;5.20;3.70;;;;;;;1.85;87.57;96610.77;110015;1248;70173;-61
2022/04/10 10:23:46;;;;;;;5.30;3.90;;;;;;;1.84;87.61;96605.46;110058;1247;59737;-61
2022/04/10 10:27:03;;;;;;;4.70;3.50;;;;;;;1.84;87.76;96605.80;109981;1248;60092;-61
2022/04/10 10:29:53;;;;;;;5.20;4.40;;;;;;;1.87;87.62;96600.86;109986;1247;71260;-62
2022/04/10 10:32:42;;;;;;;5.20;4.20;;;;;;;1.78;87.61;96602.50;110114;1248;68447;-62
2022/04/10 10:35:32;;;;;;;5.70;4.30;;;;;;;1.77;88.00;96596.05;110022;1247;69447;-62
2022/04/10 10:38:01;;;;;;;5.00;4.30;;;;;;;1.77;88.21;96595.88;110021;1247;59684;-65
2022/04/10 10:40:31;;;;;;;5.40;4.30;;;;;;;1.87;87.80;96594.34;109935;1248;59697;-62
2022/04/10 10:43:04;;;;;;;6.30;4.90;;;;;;;1.94;87.51;96597.41;110089;1247;72016;-65
2022/04/10 10:45:43;;;;;;;9.60;8.60;;;;;;;1.99;87.77;96597.83;110085;1247;70039;-61
2022/04/10 10:48:32;;;;;;;6.30;4.80;;;;;;;2.02;87.92;96602.49;110000;1247;68945;-61
2022/04/10 10:51:11;;;;;;;6.40;5.70;;;;;;;2.11;88.32;96609.08;110019;1247;59676;-65
2022/04/10 10:53:44;;;;;;;8.50;7.30;;;;;;;2.21;87.78;96614.90;110058;1247;59672;-62
2022/04/10 10:56:17;;;;;;;7.70;7.10;;;;;;;2.24;88.02;96615.27;109880;1248;71948;-64
2022/04/10 10:59:26;;;;;;;4.80;3.80;;;;;;;2.22;87.33;96612.25;110046;1247;69516;-66
2022/04/10 11:02:12;;;;;;;6.90;4.90;;;;;;;2.32;87.67;96612.45;110072;1247;69039;-63
2022/04/10 11:05:06;;;;;;;6.20;4.90;;;;;;;2.41;87.13;96615.75;109995;1247;59653;-62
2022/04/10 11:07:41;;;;;;;6.20;5.40;;;;;;;2.43;86.96;96617.73;110109;1246;59658;-62
2022/04/10 11:10:11;;;;;;;6.20;5.60;;;;;;;2.45;87.10;96624.29;110078;1247;71108;-64
2022/04/10 11:12:53;;;;;;;7.10;6.40;;;;;;;2.53;87.41;96624.91;110092;1247;69416;-61
2022/04/10 11:15:28;;;;;;;6.00;5.00;;;;;;;2.57;87.16;96623.00;110052;1247;68815;-61
2022/04/10 11:18:21;;;;;;;9.60;8.70;;;;;;;2.60;87.51;96626.45;110059;1247;59761;-60
2022/04/10 11:20:58;;;;;;;8.30;6.40;;;;;;;2.64;86.95;96631.73;110076;1247;59768;-63
2022/04/10 11:23:29;;;;;;;7.80;5.90;;;;;;;2.71;86.91;96631.86;110083;1247;70009;-61
2022/04/10 11:26:07;;;;;;;7.60;5.70;;;;;;;2.73;86.55;96636.74;109671;1247;68950;-62
2022/04/10 11:29:01;;;;;;;6.80;6.00;;;;;;;2.75;86.49;96642.49;109873;1248;67987;-65
2022/04/10 11:31:39;;;;;;;6.00;5.30;;;;;;;2.78;86.31;96643.02;110103;1247;59707;-65
2022/04/10 11:34:22;;;;;;;5.00;4.00;;;;;;;2.86;86.18;96642.77;110010;1247;59659;-62
2022/04/10 11:36:52;;;;;;;4.70;3.50;;;;;;;2.97;85.89;96644.38;110054;1247;72084;-60
2022/04/10 11:39:35;;;;;;;;;;;;;;;3.06;85.53;96647.15;110091;1247;69426;-62
2022/04/10 11:42:09;;;;;;;4.70;4.10;;;;;;;3.16;85.18;96650.26;110055;1247;70029;-64
2022/04/10 11:44:40;;;;;;;6.60;5.20;;;;;;;3.23;84.98;96655.17;110055;1247;59677;-61
2022/04/10 11:47:09;;;;;;;;;;;;;;;3.25;85.05;96656.60;109800;1248;59689;-61
2022/04/10 11:49:38;;;;;;;6.80;5.70;;;;;;;3.26;84.89;96664.34;110125;1247;70885;-62
2022/04/10 11:52:07;;;;;;;5.60;4.80;;;;;;;3.20;84.36;96666.52;110123;1247;69402;-62
2022/04/10 11:54:37;;;;;;;6.90;4.40;;;;;;;3.19;84.91;96671.93;109818;1248;69547;-63
2022/04/10 11:57:08;;;;;;;4.10;3.70;;;;;;;3.27;84.90;96672.56;110104;1247;59724;-63
2022/04/10 11:59:39;;;;;;;6.10;5.50;;;;;;;3.34;84.91;96671.46;109777;1248;59638;-61
2022/04/10 12:02:10;;;;;;;7.20;6.30;;;;;;;3.39;85.10;96666.55;110082;1247;71557;-68
2022/04/10 12:04:40;;;;;;;5.80;5.30;;;;;;;3.41;84.60;96665.58;110087;1247;68792;-67